sensor_id;sensor_type;location;lat;lon;timestamp;temperature;humidity
35325;DHT22;35135;47.510;19.036;2023-11-21T00:01:41;21.50;56.40
35325;DHT22;35135;47.510;19.036;2023-11-21T00:04:07;21.50;56.30
35325;DHT22;35135;47.510;19.036;2023-11-21T00:06:33;21.60;56.40
35325;DHT22;35135;47.510;19.036;2023-11-21T00:08:59;21.50;56.40
35325;DHT22;35135;47.510;19.036;2023-11-21T00:11:25;21.50;56.40
35325;DHT22;35135;47.510;19.036;2023-11-21T00:13:51;21.50;56.40
35325;DHT22;35135;47.510;19.036;2023-11-21T00:16:16;21.50;56.40
35325;DHT22;35135;47.510;19.036;2023-11-21T00:18:42;21.50;56.40
35325;DHT22;35135;47.510;19.036;2023-11-21T00:21:08;21.50;56.40
35325;DHT22;35135;47.510;19.036;2023-11-21T00:23:34;21.50;56.40
35325;DHT22;35135;47.510;19.036;2023-11-21T00:26:00;21.50;56.40
35325;DHT22;35135;47.510;19.036;2023-11-21T00:28:26;21.50;56.40
35325;DHT22;35135;47.510;19.036;2023-11-21T00:30:52;21.50;56.40
35325;DHT22;35135;47.510;19.036;2023-11-21T00:33:17;21.40;56.40
35325;DHT22;35135;47.510;19.036;2023-11-21T00:35:43;21.40;56.40
35325;DHT22;35135;47.510;19.036;2023-11-21T00:38:09;21.40;56.40
35325;DHT22;35135;47.510;19.036;2023-11-21T00:40:35;21.40;56.40
35325;DHT22;35135;47.510;19.036;2023-11-21T00:43:00;21.40;56.30
35325;DHT22;35135;47.510;19.036;2023-11-21T00:45:26;21.40;56.30
35325;DHT22;35135;47.510;19.036;2023-11-21T00:47:52;21.40;56.40
35325;DHT22;35135;47.510;19.036;2023-11-21T00:50:17;21.40;56.40
35325;DHT22;35135;47.510;19.036;2023-11-21T00:52:43;21.40;56.40
35325;DHT22;35135;47.510;19.036;2023-11-21T00:55:09;21.40;56.40
35325;DHT22;35135;47.510;19.036;2023-11-21T00:57:35;21.40;56.40
35325;DHT22;35135;47.510;19.036;2023-11-21T01:00:03;21.40;56.40
35325;DHT22;35135;47.510;19.036;2023-11-21T01:02:32;21.40;56.40
35325;DHT22;35135;47.510;19.036;2023-11-21T01:04:58;21.40;56.40
35325;DHT22;35135;47.510;19.036;2023-11-21T01:07:24;21.40;56.40
35325;DHT22;35135;47.510;19.036;2023-11-21T01:09:49;21.30;56.40
35325;DHT22;35135;47.510;19.036;2023-11-21T01:12:15;21.30;56.30
35325;DHT22;35135;47.510;19.036;2023-11-21T01:14:42;21.30;56.40
35325;DHT22;35135;47.510;19.036;2023-11-21T01:17:08;21.30;56.40
35325;DHT22;35135;47.510;19.036;2023-11-21T01:19:34;21.30;56.40
35325;DHT22;35135;47.510;19.036;2023-11-21T01:21:59;21.30;56.40
35325;DHT22;35135;47.510;19.036;2023-11-21T01:24:25;21.30;56.40
35325;DHT22;35135;47.510;19.036;2023-11-21T01:26:51;21.30;56.40
35325;DHT22;35135;47.510;19.036;2023-11-21T01:29:17;21.30;56.30
35325;DHT22;35135;47.510;19.036;2023-11-21T01:31:43;21.30;56.40
35325;DHT22;35135;47.510;19.036;2023-11-21T01:34:08;21.30;56.40
35325;DHT22;35135;47.510;19.036;2023-11-21T01:36:34;21.30;56.40
35325;DHT22;35135;47.510;19.036;2023-11-21T01:39:00;21.30;56.40
35325;DHT22;35135;47.510;19.036;2023-11-21T01:41:27;21.30;56.40
35325;DHT22;35135;47.510;19.036;2023-11-21T01:43:54;21.20;56.30
35325;DHT22;35135;47.510;19.036;2023-11-21T01:46:20;21.30;56.40
35325;DHT22;35135;47.510;19.036;2023-11-21T01:48:48;21.30;56.40
35325;DHT22;35135;47.510;19.036;2023-11-21T01:51:15;21.30;56.40
35325;DHT22;35135;47.510;19.036;2023-11-21T01:53:40;21.30;56.40
35325;DHT22;35135;47.510;19.036;2023-11-21T01:56:07;21.30;56.40
35325;DHT22;35135;47.510;19.036;2023-11-21T01:58:34;21.30;56.40
35325;DHT22;35135;47.510;19.036;2023-11-21T02:00:59;21.30;56.40
35325;DHT22;35135;47.510;19.036;2023-11-21T02:03:25;21.20;56.30
35325;DHT22;35135;47.510;19.036;2023-11-21T02:05:52;21.30;56.40
35325;DHT22;35135;47.510;19.036;2023-11-21T02:08:19;21.20;56.30
35325;DHT22;35135;47.510;19.036;2023-11-21T02:10:45;21.20;56.40
35325;DHT22;35135;47.510;19.036;2023-11-21T02:13:11;21.20;56.30
35325;DHT22;35135;47.510;19.036;2023-11-21T02:15:37;21.20;56.40
35325;DHT22;35135;47.510;19.036;2023-11-21T02:18:04;21.20;56.40
35325;DHT22;35135;47.510;19.036;2023-11-21T02:20:32;21.20;56.30
35325;DHT22;35135;47.510;19.036;2023-11-21T02:23:00;21.20;56.30
35325;DHT22;35135;47.510;19.036;2023-11-21T02:25:28;21.20;56.30
35325;DHT22;35135;47.510;19.036;2023-11-21T02:27:55;21.20;56.30
35325;DHT22;35135;47.510;19.036;2023-11-21T02:30:21;21.20;56.30
35325;DHT22;35135;47.510;19.036;2023-11-21T02:32:48;21.20;56.30
35325;DHT22;35135;47.510;19.036;2023-11-21T02:35:14;21.20;56.30
35325;DHT22;35135;47.510;19.036;2023-11-21T02:37:41;21.20;56.30
35325;DHT22;35135;47.510;19.036;2023-11-21T02:40:10;21.20;56.30
35325;DHT22;35135;47.510;19.036;2023-11-21T02:42:38;21.10;56.30
35325;DHT22;35135;47.510;19.036;2023-11-21T02:45:05;21.10;56.30
35325;DHT22;35135;47.510;19.036;2023-11-21T02:47:31;21.10;56.30
35325;DHT22;35135;47.510;19.036;2023-11-21T02:49:57;21.10;56.30
35325;DHT22;35135;47.510;19.036;2023-11-21T02:52:22;21.10;56.30
35325;DHT22;35135;47.510;19.036;2023-11-21T02:54:49;21.10;56.30
35325;DHT22;35135;47.510;19.036;2023-11-21T02:57:15;21.10;56.30
35325;DHT22;35135;47.510;19.036;2023-11-21T02:59:40;21.10;56.30
35325;DHT22;35135;47.510;19.036;2023-11-21T03:02:06;21.10;56.30
35325;DHT22;35135;47.510;19.036;2023-11-21T03:04:34;21.10;56.30
35325;DHT22;35135;47.510;19.036;2023-11-21T03:07:00;21.10;56.30
35325;DHT22;35135;47.510;19.036;2023-11-21T03:09:26;21.10;56.30
35325;DHT22;35135;47.510;19.036;2023-11-21T03:11:55;21.10;56.30
35325;DHT22;35135;47.510;19.036;2023-11-21T03:14:21;21.10;56.30
35325;DHT22;35135;47.510;19.036;2023-11-21T03:16:48;21.10;56.30
35325;DHT22;35135;47.510;19.036;2023-11-21T03:19:14;21.10;56.30
35325;DHT22;35135;47.510;19.036;2023-11-21T03:21:40;21.10;56.30
35325;DHT22;35135;47.510;19.036;2023-11-21T03:24:06;21.10;56.30
35325;DHT22;35135;47.510;19.036;2023-11-21T03:26:33;21.10;56.30
35325;DHT22;35135;47.510;19.036;2023-11-21T03:28:58;21.10;56.30
35325;DHT22;35135;47.510;19.036;2023-11-21T03:31:24;21.10;56.30
35325;DHT22;35135;47.510;19.036;2023-11-21T03:33:50;21.10;56.30
35325;DHT22;35135;47.510;19.036;2023-11-21T03:36:15;21.00;56.30
35325;DHT22;35135;47.510;19.036;2023-11-21T03:38:41;21.00;56.30
35325;DHT22;35135;47.510;19.036;2023-11-21T03:41:07;21.00;56.30
35325;DHT22;35135;47.510;19.036;2023-11-21T03:43:38;21.00;56.30
35325;DHT22;35135;47.510;19.036;2023-11-21T03:46:04;21.00;56.30
35325;DHT22;35135;47.510;19.036;2023-11-21T03:48:30;21.00;56.30
35325;DHT22;35135;47.510;19.036;2023-11-21T03:50:56;21.00;56.30
35325;DHT22;35135;47.510;19.036;2023-11-21T03:53:21;21.00;56.30
35325;DHT22;35135;47.510;19.036;2023-11-21T03:55:47;21.00;56.30
35325;DHT22;35135;47.510;19.036;2023-11-21T03:58:13;21.00;56.30
35325;DHT22;35135;47.510;19.036;2023-11-21T04:00:39;21.00;56.30
35325;DHT22;35135;47.510;19.036;2023-11-21T04:03:04;21.00;56.30
35325;DHT22;35135;47.510;19.036;2023-11-21T04:05:30;21.00;56.30
35325;DHT22;35135;47.510;19.036;2023-11-21T04:07:56;21.00;56.30
35325;DHT22;35135;47.510;19.036;2023-11-21T04:10:22;21.00;56.30
35325;DHT22;35135;47.510;19.036;2023-11-21T04:12:48;21.00;56.30
35325;DHT22;35135;47.510;19.036;2023-11-21T04:15:14;21.00;56.30
35325;DHT22;35135;47.510;19.036;2023-11-21T04:17:40;21.00;56.30
35325;DHT22;35135;47.510;19.036;2023-11-21T04:20:07;21.00;56.30
35325;DHT22;35135;47.510;19.036;2023-11-21T04:22:42;21.00;56.30
35325;DHT22;35135;47.510;19.036;2023-11-21T04:25:10;21.00;56.30
35325;DHT22;35135;47.510;19.036;2023-11-21T04:27:38;21.00;56.30
35325;DHT22;35135;47.510;19.036;2023-11-21T04:30:04;21.00;56.30
35325;DHT22;35135;47.510;19.036;2023-11-21T04:32:30;21.00;56.30
35325;DHT22;35135;47.510;19.036;2023-11-21T04:34:56;20.90;56.20
35325;DHT22;35135;47.510;19.036;2023-11-21T04:37:21;20.90;56.20
35325;DHT22;35135;47.510;19.036;2023-11-21T04:39:48;20.90;56.20
35325;DHT22;35135;47.510;19.036;2023-11-21T04:42:13;20.90;56.20
35325;DHT22;35135;47.510;19.036;2023-11-21T04:44:39;20.90;56.20
35325;DHT22;35135;47.510;19.036;2023-11-21T04:47:06;20.90;56.20
35325;DHT22;35135;47.510;19.036;2023-11-21T04:49:33;20.90;56.30
35325;DHT22;35135;47.510;19.036;2023-11-21T04:51:59;20.90;56.30
35325;DHT22;35135;47.510;19.036;2023-11-21T04:54:25;20.90;56.20
35325;DHT22;35135;47.510;19.036;2023-11-21T04:56:50;20.90;56.20
35325;DHT22;35135;47.510;19.036;2023-11-21T04:59:16;20.90;56.20
35325;DHT22;35135;47.510;19.036;2023-11-21T05:01:42;20.90;56.30
35325;DHT22;35135;47.510;19.036;2023-11-21T05:04:07;20.90;56.20
35325;DHT22;35135;47.510;19.036;2023-11-21T05:06:34;20.90;56.30
35325;DHT22;35135;47.510;19.036;2023-11-21T05:09:00;20.90;56.20
35325;DHT22;35135;47.510;19.036;2023-11-21T05:11:27;20.90;56.20
35325;DHT22;35135;47.510;19.036;2023-11-21T05:13:53;21.00;56.30
35325;DHT22;35135;47.510;19.036;2023-11-21T05:16:22;21.00;56.30
35325;DHT22;35135;47.510;19.036;2023-11-21T05:18:47;21.10;56.20
35325;DHT22;35135;47.510;19.036;2023-11-21T05:21:14;21.20;56.20
35325;DHT22;35135;47.510;19.036;2023-11-21T05:23:40;21.30;56.10
35325;DHT22;35135;47.510;19.036;2023-11-21T05:26:06;21.40;56.00
35325;DHT22;35135;47.510;19.036;2023-11-21T05:28:32;21.50;55.80
35325;DHT22;35135;47.510;19.036;2023-11-21T05:30:58;21.60;55.70
35325;DHT22;35135;47.510;19.036;2023-11-21T05:33:24;21.60;55.50
35325;DHT22;35135;47.510;19.036;2023-11-21T05:35:50;21.70;55.30
35325;DHT22;35135;47.510;19.036;2023-11-21T05:38:16;21.80;55.30
35325;DHT22;35135;47.510;19.036;2023-11-21T05:40:41;21.80;55.20
35325;DHT22;35135;47.510;19.036;2023-11-21T05:43:10;21.80;55.10
35325;DHT22;35135;47.510;19.036;2023-11-21T05:45:36;21.80;55.00
35325;DHT22;35135;47.510;19.036;2023-11-21T05:48:02;21.90;55.00
35325;DHT22;35135;47.510;19.036;2023-11-21T05:50:28;21.80;54.80
35325;DHT22;35135;47.510;19.036;2023-11-21T05:52:53;21.80;54.80
35325;DHT22;35135;47.510;19.036;2023-11-21T05:55:19;21.90;54.90
35325;DHT22;35135;47.510;19.036;2023-11-21T05:57:46;21.80;54.80
35325;DHT22;35135;47.510;19.036;2023-11-21T06:00:14;21.80;54.80
35325;DHT22;35135;47.510;19.036;2023-11-21T06:02:53;21.80;54.80
35325;DHT22;35135;47.510;19.036;2023-11-21T06:05:20;21.80;54.80
35325;DHT22;35135;47.510;19.036;2023-11-21T06:07:46;21.80;54.90
35325;DHT22;35135;47.510;19.036;2023-11-21T06:10:12;21.80;54.90
35325;DHT22;35135;47.510;19.036;2023-11-21T06:12:40;21.80;54.80
35325;DHT22;35135;47.510;19.036;2023-11-21T06:15:08;21.80;54.80
35325;DHT22;35135;47.510;19.036;2023-11-21T06:17:35;21.80;54.70
35325;DHT22;35135;47.510;19.036;2023-11-21T06:20:06;21.80;54.80
35325;DHT22;35135;47.510;19.036;2023-11-21T06:22:36;21.80;54.90
35325;DHT22;35135;47.510;19.036;2023-11-21T06:25:02;21.80;54.90
35325;DHT22;35135;47.510;19.036;2023-11-21T06:27:30;21.80;55.00
35325;DHT22;35135;47.510;19.036;2023-11-21T06:29:56;21.80;55.00
35325;DHT22;35135;47.510;19.036;2023-11-21T06:32:22;21.80;55.10
35325;DHT22;35135;47.510;19.036;2023-11-21T06:34:48;21.80;55.10
35325;DHT22;35135;47.510;19.036;2023-11-21T06:37:15;21.70;55.10
35325;DHT22;35135;47.510;19.036;2023-11-21T06:39:40;21.70;55.10
35325;DHT22;35135;47.510;19.036;2023-11-21T06:42:07;21.70;55.10
35325;DHT22;35135;47.510;19.036;2023-11-21T06:44:33;21.70;54.80
35325;DHT22;35135;47.510;19.036;2023-11-21T06:46:59;21.70;52.40
35325;DHT22;35135;47.510;19.036;2023-11-21T06:49:25;21.60;52.00
35325;DHT22;35135;47.510;19.036;2023-11-21T06:51:51;21.60;52.10
35325;DHT22;35135;47.510;19.036;2023-11-21T06:54:16;21.60;52.80
35325;DHT22;35135;47.510;19.036;2023-11-21T06:56:42;21.50;52.80
35325;DHT22;35135;47.510;19.036;2023-11-21T06:59:08;21.50;53.20
35325;DHT22;35135;47.510;19.036;2023-11-21T07:01:34;21.50;52.90
35325;DHT22;35135;47.510;19.036;2023-11-21T07:04:05;21.50;53.10
35325;DHT22;35135;47.510;19.036;2023-11-21T07:06:31;21.50;53.00
35325;DHT22;35135;47.510;19.036;2023-11-21T07:08:57;21.50;53.20
35325;DHT22;35135;47.510;19.036;2023-11-21T07:11:24;21.50;53.30
35325;DHT22;35135;47.510;19.036;2023-11-21T07:13:50;21.40;53.30
35325;DHT22;35135;47.510;19.036;2023-11-21T07:16:16;21.40;53.40
35325;DHT22;35135;47.510;19.036;2023-11-21T07:18:42;21.50;52.80
35325;DHT22;35135;47.510;19.036;2023-11-21T07:21:08;21.40;50.10
35325;DHT22;35135;47.510;19.036;2023-11-21T07:23:34;21.30;48.30
35325;DHT22;35135;47.510;19.036;2023-11-21T07:26:00;21.30;47.80
35325;DHT22;35135;47.510;19.036;2023-11-21T07:28:25;21.20;47.40
35325;DHT22;35135;47.510;19.036;2023-11-21T07:30:51;21.10;48.50
35325;DHT22;35135;47.510;19.036;2023-11-21T07:33:18;21.10;49.30
35325;DHT22;35135;47.510;19.036;2023-11-21T07:35:43;21.10;49.40
35325;DHT22;35135;47.510;19.036;2023-11-21T07:38:09;21.10;50.00
35325;DHT22;35135;47.510;19.036;2023-11-21T07:40:35;21.10;49.20
35325;DHT22;35135;47.510;19.036;2023-11-21T07:43:01;21.00;49.20
35325;DHT22;35135;47.510;19.036;2023-11-21T07:45:26;20.90;50.60
35325;DHT22;35135;47.510;19.036;2023-11-21T07:47:54;20.90;49.20
35325;DHT22;35135;47.510;19.036;2023-11-21T07:50:21;20.70;47.40
35325;DHT22;35135;47.510;19.036;2023-11-21T07:52:48;20.50;48.20
35325;DHT22;35135;47.510;19.036;2023-11-21T07:55:15;20.30;48.50
35325;DHT22;35135;47.510;19.036;2023-11-21T07:57:41;20.30;49.00
35325;DHT22;35135;47.510;19.036;2023-11-21T08:00:07;20.20;49.10
35325;DHT22;35135;47.510;19.036;2023-11-21T08:02:34;20.20;51.10
35325;DHT22;35135;47.510;19.036;2023-11-21T08:05:00;20.20;50.00
35325;DHT22;35135;47.510;19.036;2023-11-21T08:07:26;20.10;50.80
35325;DHT22;35135;47.510;19.036;2023-11-21T08:09:52;20.00;52.00
35325;DHT22;35135;47.510;19.036;2023-11-21T08:12:18;20.00;51.50
35325;DHT22;35135;47.510;19.036;2023-11-21T08:14:45;20.00;51.90
35325;DHT22;35135;47.510;19.036;2023-11-21T08:17:11;20.00;50.80
35325;DHT22;35135;47.510;19.036;2023-11-21T08:19:37;19.90;51.90
35325;DHT22;35135;47.510;19.036;2023-11-21T08:22:03;19.90;53.20
35325;DHT22;35135;47.510;19.036;2023-11-21T08:24:29;20.00;53.60
35325;DHT22;35135;47.510;19.036;2023-11-21T08:26:55;20.10;53.60
35325;DHT22;35135;47.510;19.036;2023-11-21T08:29:21;20.20;53.50
35325;DHT22;35135;47.510;19.036;2023-11-21T08:31:48;20.30;53.50
35325;DHT22;35135;47.510;19.036;2023-11-21T08:34:14;20.40;53.50
35325;DHT22;35135;47.510;19.036;2023-11-21T08:36:43;20.40;53.90
35325;DHT22;35135;47.510;19.036;2023-11-21T08:39:09;20.50;53.40
35325;DHT22;35135;47.510;19.036;2023-11-21T08:41:38;20.50;53.20
35325;DHT22;35135;47.510;19.036;2023-11-21T08:44:04;20.50;53.20
35325;DHT22;35135;47.510;19.036;2023-11-21T08:46:34;20.50;53.10
35325;DHT22;35135;47.510;19.036;2023-11-21T08:49:01;20.60;53.20
35325;DHT22;35135;47.510;19.036;2023-11-21T08:51:27;20.60;53.20
35325;DHT22;35135;47.510;19.036;2023-11-21T08:53:52;20.60;53.20
35325;DHT22;35135;47.510;19.036;2023-11-21T08:56:18;20.60;54.00
35325;DHT22;35135;47.510;19.036;2023-11-21T08:58:46;20.60;53.40
35325;DHT22;35135;47.510;19.036;2023-11-21T09:01:15;20.70;53.50
35325;DHT22;35135;47.510;19.036;2023-11-21T09:03:42;20.70;53.60
35325;DHT22;35135;47.510;19.036;2023-11-21T09:06:09;20.70;53.80
35325;DHT22;35135;47.510;19.036;2023-11-21T09:08:35;20.70;53.80
35325;DHT22;35135;47.510;19.036;2023-11-21T09:11:01;20.70;53.90
35325;DHT22;35135;47.510;19.036;2023-11-21T09:13:27;20.70;53.90
35325;DHT22;35135;47.510;19.036;2023-11-21T09:15:52;20.70;54.00
35325;DHT22;35135;47.510;19.036;2023-11-21T09:18:18;20.70;54.00
35325;DHT22;35135;47.510;19.036;2023-11-21T09:20:44;20.70;54.10
35325;DHT22;35135;47.510;19.036;2023-11-21T09:23:10;20.70;54.30
35325;DHT22;35135;47.510;19.036;2023-11-21T09:25:35;20.80;54.50
35325;DHT22;35135;47.510;19.036;2023-11-21T09:28:03;20.70;54.40
35325;DHT22;35135;47.510;19.036;2023-11-21T09:30:36;20.80;54.50
35325;DHT22;35135;47.510;19.036;2023-11-21T09:33:03;20.80;54.40
35325;DHT22;35135;47.510;19.036;2023-11-21T09:35:30;20.70;54.60
35325;DHT22;35135;47.510;19.036;2023-11-21T09:37:57;20.80;54.80
35325;DHT22;35135;47.510;19.036;2023-11-21T09:40:22;20.80;54.70
35325;DHT22;35135;47.510;19.036;2023-11-21T09:42:54;20.80;54.50
35325;DHT22;35135;47.510;19.036;2023-11-21T09:45:34;20.80;54.60
35325;DHT22;35135;47.510;19.036;2023-11-21T09:48:00;20.80;54.60
35325;DHT22;35135;47.510;19.036;2023-11-21T09:50:27;20.80;54.80
35325;DHT22;35135;47.510;19.036;2023-11-21T09:55:18;20.80;55.00
35325;DHT22;35135;47.510;19.036;2023-11-21T09:57:47;20.80;54.90
35325;DHT22;35135;47.510;19.036;2023-11-21T10:00:15;20.80;55.00
35325;DHT22;35135;47.510;19.036;2023-11-21T10:02:43;20.80;55.20
35325;DHT22;35135;47.510;19.036;2023-11-21T10:05:09;20.80;55.00
35325;DHT22;35135;47.510;19.036;2023-11-21T10:07:39;20.80;55.00
35325;DHT22;35135;47.510;19.036;2023-11-21T10:10:07;20.80;55.20
35325;DHT22;35135;47.510;19.036;2023-11-21T10:12:35;20.80;55.10
35325;DHT22;35135;47.510;19.036;2023-11-21T10:15:02;20.80;55.30
35325;DHT22;35135;47.510;19.036;2023-11-21T10:17:28;20.80;55.30
35325;DHT22;35135;47.510;19.036;2023-11-21T10:19:57;20.80;55.20
35325;DHT22;35135;47.510;19.036;2023-11-21T10:22:24;20.80;55.30
35325;DHT22;35135;47.510;19.036;2023-11-21T10:24:50;20.80;55.40
35325;DHT22;35135;47.510;19.036;2023-11-21T10:27:15;20.80;55.50
35325;DHT22;35135;47.510;19.036;2023-11-21T10:29:41;20.80;55.40
35325;DHT22;35135;47.510;19.036;2023-11-21T10:32:07;20.80;55.70
35325;DHT22;35135;47.510;19.036;2023-11-21T10:34:33;20.80;55.60
35325;DHT22;35135;47.510;19.036;2023-11-21T10:37:13;20.80;55.70
35325;DHT22;35135;47.510;19.036;2023-11-21T10:39:41;20.90;56.00
35325;DHT22;35135;47.510;19.036;2023-11-21T10:42:09;20.90;55.80
35325;DHT22;35135;47.510;19.036;2023-11-21T10:44:35;20.90;55.80
35325;DHT22;35135;47.510;19.036;2023-11-21T10:47:02;20.90;55.90
35325;DHT22;35135;47.510;19.036;2023-11-21T10:49:28;20.90;55.90
35325;DHT22;35135;47.510;19.036;2023-11-21T10:51:55;20.90;55.90
35325;DHT22;35135;47.510;19.036;2023-11-21T10:54:22;20.90;56.00
35325;DHT22;35135;47.510;19.036;2023-11-21T10:57:06;20.90;55.90
35325;DHT22;35135;47.510;19.036;2023-11-21T10:59:32;20.90;55.90
35325;DHT22;35135;47.510;19.036;2023-11-21T11:01:58;20.90;56.00
35325;DHT22;35135;47.510;19.036;2023-11-21T11:04:27;20.90;56.00
35325;DHT22;35135;47.510;19.036;2023-11-21T11:07:02;20.90;56.00
35325;DHT22;35135;47.510;19.036;2023-11-21T11:09:30;20.90;56.20
35325;DHT22;35135;47.510;19.036;2023-11-21T11:11:59;20.90;56.10
35325;DHT22;35135;47.510;19.036;2023-11-21T11:14:25;20.90;56.40
35325;DHT22;35135;47.510;19.036;2023-11-21T11:16:54;20.90;56.40
35325;DHT22;35135;47.510;19.036;2023-11-21T11:19:21;20.90;56.50
35325;DHT22;35135;47.510;19.036;2023-11-21T11:29:48;20.90;56.40
35325;DHT22;35135;47.510;19.036;2023-11-21T11:35:12;20.90;56.40
35325;DHT22;35135;47.510;19.036;2023-11-21T11:37:42;20.90;56.50
35325;DHT22;35135;47.510;19.036;2023-11-21T11:40:11;20.90;56.50
35325;DHT22;35135;47.510;19.036;2023-11-21T11:42:37;20.90;56.40
35325;DHT22;35135;47.510;19.036;2023-11-21T11:45:17;20.90;56.40
35325;DHT22;35135;47.510;19.036;2023-11-21T11:47:43;20.90;56.40
35325;DHT22;35135;47.510;19.036;2023-11-21T11:50:12;20.90;56.30
35325;DHT22;35135;47.510;19.036;2023-11-21T11:52:55;20.90;56.20
35325;DHT22;35135;47.510;19.036;2023-11-21T11:55:24;20.90;56.20
35325;DHT22;35135;47.510;19.036;2023-11-21T11:57:54;20.90;56.30
35325;DHT22;35135;47.510;19.036;2023-11-21T12:00:21;20.90;56.30
35325;DHT22;35135;47.510;19.036;2023-11-21T12:02:57;20.90;56.40
35325;DHT22;35135;47.510;19.036;2023-11-21T12:05:25;20.90;56.80
35325;DHT22;35135;47.510;19.036;2023-11-21T12:07:54;20.90;56.20
35325;DHT22;35135;47.510;19.036;2023-11-21T12:10:27;20.90;56.10
35325;DHT22;35135;47.510;19.036;2023-11-21T12:12:58;20.90;56.00
35325;DHT22;35135;47.510;19.036;2023-11-21T12:15:24;20.90;56.00
35325;DHT22;35135;47.510;19.036;2023-11-21T12:17:51;21.00;56.30
35325;DHT22;35135;47.510;19.036;2023-11-21T12:20:22;20.90;56.20
35325;DHT22;35135;47.510;19.036;2023-11-21T12:22:49;20.90;55.70
35325;DHT22;35135;47.510;19.036;2023-11-21T12:27:49;20.90;55.70
35325;DHT22;35135;47.510;19.036;2023-11-21T12:30:16;20.90;55.50
35325;DHT22;35135;47.510;19.036;2023-11-21T12:32:51;20.90;55.50
35325;DHT22;35135;47.510;19.036;2023-11-21T12:35:18;20.90;55.40
35325;DHT22;35135;47.510;19.036;2023-11-21T12:37:45;20.90;55.30
35325;DHT22;35135;47.510;19.036;2023-11-21T12:40:11;20.90;55.30
35325;DHT22;35135;47.510;19.036;2023-11-21T12:42:41;20.90;55.40
35325;DHT22;35135;47.510;19.036;2023-11-21T12:47:43;20.90;55.40
35325;DHT22;35135;47.510;19.036;2023-11-21T12:50:10;20.90;55.60
35325;DHT22;35135;47.510;19.036;2023-11-21T12:52:44;20.90;55.60
35325;DHT22;35135;47.510;19.036;2023-11-21T12:55:17;20.90;55.70
35325;DHT22;35135;47.510;19.036;2023-11-21T12:57:51;20.90;55.90
35325;DHT22;35135;47.510;19.036;2023-11-21T13:00:26;20.90;55.70
35325;DHT22;35135;47.510;19.036;2023-11-21T13:02:54;20.90;56.10
35325;DHT22;35135;47.510;19.036;2023-11-21T13:05:25;20.90;56.00
35325;DHT22;35135;47.510;19.036;2023-11-21T13:07:51;21.00;56.30
35325;DHT22;35135;47.510;19.036;2023-11-21T13:10:26;21.00;56.30
35325;DHT22;35135;47.510;19.036;2023-11-21T13:12:59;20.90;56.40
35325;DHT22;35135;47.510;19.036;2023-11-21T13:15:27;21.00;56.40
35325;DHT22;35135;47.510;19.036;2023-11-21T13:17:53;21.00;56.30
35325;DHT22;35135;47.510;19.036;2023-11-21T13:20:20;20.90;56.10
35325;DHT22;35135;47.510;19.036;2023-11-21T13:22:53;20.90;56.10
35325;DHT22;35135;47.510;19.036;2023-11-21T13:25:23;21.00;56.10
35325;DHT22;35135;47.510;19.036;2023-11-21T13:27:49;21.00;56.20
35325;DHT22;35135;47.510;19.036;2023-11-21T13:30:16;21.00;56.10
35325;DHT22;35135;47.510;19.036;2023-11-21T13:32:43;21.00;56.10
35325;DHT22;35135;47.510;19.036;2023-11-21T13:35:10;21.00;56.30
35325;DHT22;35135;47.510;19.036;2023-11-21T13:37:50;21.00;56.40
35325;DHT22;35135;47.510;19.036;2023-11-21T13:40:20;21.00;56.40
35325;DHT22;35135;47.510;19.036;2023-11-21T13:42:51;21.00;56.20
35325;DHT22;35135;47.510;19.036;2023-11-21T13:45:19;20.90;56.10
35325;DHT22;35135;47.510;19.036;2023-11-21T13:47:47;21.00;56.00
35325;DHT22;35135;47.510;19.036;2023-11-21T13:50:13;21.00;56.10
35325;DHT22;35135;47.510;19.036;2023-11-21T13:52:44;21.00;56.10
35325;DHT22;35135;47.510;19.036;2023-11-21T13:55:13;21.00;56.10
35325;DHT22;35135;47.510;19.036;2023-11-21T13:57:44;21.00;55.90
35325;DHT22;35135;47.510;19.036;2023-11-21T14:00:11;21.00;55.90
35325;DHT22;35135;47.510;19.036;2023-11-21T14:02:57;20.90;56.00
35325;DHT22;35135;47.510;19.036;2023-11-21T14:05:26;20.90;55.80
35325;DHT22;35135;47.510;19.036;2023-11-21T14:07:58;20.90;55.80
35325;DHT22;35135;47.510;19.036;2023-11-21T14:10:33;20.90;55.70
35325;DHT22;35135;47.510;19.036;2023-11-21T14:13:06;20.90;55.60
35325;DHT22;35135;47.510;19.036;2023-11-21T14:15:32;20.90;55.60
35325;DHT22;35135;47.510;19.036;2023-11-21T14:18:02;20.90;55.50
35325;DHT22;35135;47.510;19.036;2023-11-21T14:20:33;20.90;55.50
35325;DHT22;35135;47.510;19.036;2023-11-21T14:23:01;20.90;55.50
35325;DHT22;35135;47.510;19.036;2023-11-21T14:25:27;20.90;55.50
35325;DHT22;35135;47.510;19.036;2023-11-21T14:27:53;20.90;55.50
35325;DHT22;35135;47.510;19.036;2023-11-21T14:30:19;20.90;56.10
35325;DHT22;35135;47.510;19.036;2023-11-21T14:32:48;20.90;55.50
35325;DHT22;35135;47.510;19.036;2023-11-21T14:35:14;20.90;55.40
35325;DHT22;35135;47.510;19.036;2023-11-21T14:37:40;20.90;55.40
35325;DHT22;35135;47.510;19.036;2023-11-21T14:40:06;20.90;55.40
35325;DHT22;35135;47.510;19.036;2023-11-21T14:42:33;20.90;55.40
35325;DHT22;35135;47.510;19.036;2023-11-21T14:44:59;20.90;55.50
35325;DHT22;35135;47.510;19.036;2023-11-21T14:47:29;20.90;55.50
35325;DHT22;35135;47.510;19.036;2023-11-21T14:49:54;20.90;55.50
35325;DHT22;35135;47.510;19.036;2023-11-21T14:52:22;20.90;55.40
35325;DHT22;35135;47.510;19.036;2023-11-21T14:55:01;21.00;55.40
35325;DHT22;35135;47.510;19.036;2023-11-21T14:57:45;20.90;55.40
35325;DHT22;35135;47.510;19.036;2023-11-21T15:00:19;20.90;55.30
35325;DHT22;35135;47.510;19.036;2023-11-21T15:03:00;20.90;55.20
35325;DHT22;35135;47.510;19.036;2023-11-21T15:05:27;20.90;55.30
35325;DHT22;35135;47.510;19.036;2023-11-21T15:07:54;20.90;55.20
35325;DHT22;35135;47.510;19.036;2023-11-21T15:10:24;20.90;55.20
35325;DHT22;35135;47.510;19.036;2023-11-21T15:13:03;20.90;55.20
35325;DHT22;35135;47.510;19.036;2023-11-21T15:15:29;20.90;55.00
35325;DHT22;35135;47.510;19.036;2023-11-21T15:17:57;20.90;54.80
35325;DHT22;35135;47.510;19.036;2023-11-21T15:20:23;20.90;55.00
35325;DHT22;35135;47.510;19.036;2023-11-21T15:22:48;20.90;55.20
35325;DHT22;35135;47.510;19.036;2023-11-21T15:25:14;20.90;55.20
35325;DHT22;35135;47.510;19.036;2023-11-21T15:27:40;20.90;55.20
35325;DHT22;35135;47.510;19.036;2023-11-21T15:30:07;20.90;55.30
35325;DHT22;35135;47.510;19.036;2023-11-21T15:32:32;20.90;55.30
35325;DHT22;35135;47.510;19.036;2023-11-21T15:34:58;20.90;55.30